sensor_id;sensor_type;location;lat;lon;timestamp;P1;durP1;ratioP1;P2;durP2;ratioP2
51010;SDS011;37038;50.182;8.624;2022-12-07T00:03:15;40.92;;;25.10;;
51010;SDS011;37038;50.182;8.624;2022-12-07T00:16:34;38.55;;;24.42;;
51010;SDS011;37038;50.182;8.624;2022-12-07T00:20:12;36.42;;;23.65;;
51010;SDS011;37038;50.182;8.624;2022-12-07T00:24:07;36.67;;;24.48;;
51010;SDS011;37038;50.182;8.624;2022-12-07T00:29:55;34.60;;;22.65;;
51010;SDS011;37038;50.182;8.624;2022-12-07T01:21:11;36.30;;;20.33;;
51010;SDS011;37038;50.182;8.624;2022-12-07T01:24:52;30.25;;;19.65;;
51010;SDS011;37038;50.182;8.624;2022-12-07T01:43:15;32.67;;;19.20;;
51010;SDS011;37038;50.182;8.624;2022-12-07T01:46:33;28.80;;;17.48;;
51010;SDS011;37038;50.182;8.624;2022-12-07T01:50:31;32.25;;;19.02;;
51010;SDS011;37038;50.182;8.624;2022-12-07T01:54:00;27.50;;;17.88;;
51010;SDS011;37038;50.182;8.624;2022-12-07T01:56:57;29.33;;;18.63;;
51010;SDS011;37038;50.182;8.624;2022-12-07T01:59:50;28.17;;;18.02;;
51010;SDS011;37038;50.182;8.624;2022-12-07T02:44:10;30.87;;;18.33;;
51010;SDS011;37038;50.182;8.624;2022-12-07T02:48:12;27.05;;;15.95;;
51010;SDS011;37038;50.182;8.624;2022-12-07T02:51:29;30.02;;;16.48;;
51010;SDS011;37038;50.182;8.624;2022-12-07T02:54:35;28.13;;;16.58;;
51010;SDS011;37038;50.182;8.624;2022-12-07T03:14:33;28.48;;;15.80;;
51010;SDS011;37038;50.182;8.624;2022-12-07T03:17:40;28.38;;;18.30;;
51010;SDS011;37038;50.182;8.624;2022-12-07T03:21:27;27.65;;;15.35;;
51010;SDS011;37038;50.182;8.624;2022-12-07T03:24:31;23.85;;;16.90;;
51010;SDS011;37038;50.182;8.624;2022-12-07T03:28:09;24.45;;;17.48;;
51010;SDS011;37038;50.182;8.624;2022-12-07T03:31:17;23.98;;;15.88;;
51010;SDS011;37038;50.182;8.624;2022-12-07T03:35:05;26.05;;;16.05;;
51010;SDS011;37038;50.182;8.624;2022-12-07T03:39:26;22.88;;;15.45;;
51010;SDS011;37038;50.182;8.624;2022-12-07T03:58:43;25.35;;;16.67;;
51010;SDS011;37038;50.182;8.624;2022-12-07T04:02:05;25.90;;;15.75;;
51010;SDS011;37038;50.182;8.624;2022-12-07T04:05:08;27.00;;;17.02;;
51010;SDS011;37038;50.182;8.624;2022-12-07T04:25:54;30.45;;;18.10;;
51010;SDS011;37038;50.182;8.624;2022-12-07T04:29:11;27.40;;;16.48;;
51010;SDS011;37038;50.182;8.624;2022-12-07T04:33:38;26.60;;;16.48;;
51010;SDS011;37038;50.182;8.624;2022-12-07T04:42:00;27.80;;;16.55;;
51010;SDS011;37038;50.182;8.624;2022-12-07T04:46:54;28.20;;;16.40;;
51010;SDS011;37038;50.182;8.624;2022-12-07T04:50:29;29.05;;;16.80;;
51010;SDS011;37038;50.182;8.624;2022-12-07T05:02:00;30.63;;;18.00;;
51010;SDS011;37038;50.182;8.624;2022-12-07T05:04:51;26.73;;;16.52;;
51010;SDS011;37038;50.182;8.624;2022-12-07T05:07:50;27.08;;;17.77;;
51010;SDS011;37038;50.182;8.624;2022-12-07T05:53:19;25.15;;;16.65;;
51010;SDS011;37038;50.182;8.624;2022-12-07T06:48:41;29.87;;;19.10;;
51010;SDS011;37038;50.182;8.624;2022-12-07T06:56:33;29.35;;;17.52;;
51010;SDS011;37038;50.182;8.624;2022-12-07T06:59:27;24.92;;;17.45;;
51010;SDS011;37038;50.182;8.624;2022-12-07T07:02:21;27.38;;;18.02;;
51010;SDS011;37038;50.182;8.624;2022-12-07T07:06:40;24.52;;;16.80;;
51010;SDS011;37038;50.182;8.624;2022-12-07T07:10:29;30.63;;;17.50;;
51010;SDS011;37038;50.182;8.624;2022-12-07T07:25:54;29.92;;;17.60;;
51010;SDS011;37038;50.182;8.624;2022-12-07T07:29:28;23.10;;;15.85;;
51010;SDS011;37038;50.182;8.624;2022-12-07T07:34:06;21.90;;;15.80;;
51010;SDS011;37038;50.182;8.624;2022-12-07T07:40:23;27.00;;;17.50;;
51010;SDS011;37038;50.182;8.624;2022-12-07T07:43:50;19.08;;;13.25;;
51010;SDS011;37038;50.182;8.624;2022-12-07T07:50:29;27.92;;;17.67;;
51010;SDS011;37038;50.182;8.624;2022-12-07T07:58:39;23.63;;;16.83;;
51010;SDS011;37038;50.182;8.624;2022-12-07T08:01:53;24.38;;;15.52;;
51010;SDS011;37038;50.182;8.624;2022-12-07T08:04:48;26.05;;;16.70;;
51010;SDS011;37038;50.182;8.624;2022-12-07T08:08:08;27.00;;;17.92;;
51010;SDS011;37038;50.182;8.624;2022-12-07T08:16:28;28.38;;;17.25;;
51010;SDS011;37038;50.182;8.624;2022-12-07T08:20:31;27.50;;;16.50;;
51010;SDS011;37038;50.182;8.624;2022-12-07T08:28:00;21.08;;;15.35;;
51010;SDS011;37038;50.182;8.624;2022-12-07T08:31:51;26.52;;;16.08;;
51010;SDS011;37038;50.182;8.624;2022-12-07T08:34:44;22.48;;;14.85;;
51010;SDS011;37038;50.182;8.624;2022-12-07T08:38:04;23.77;;;16.15;;
51010;SDS011;37038;50.182;8.624;2022-12-07T08:41:59;19.58;;;14.20;;
51010;SDS011;37038;50.182;8.624;2022-12-07T08:45:00;19.25;;;13.88;;
51010;SDS011;37038;50.182;8.624;2022-12-07T08:48:00;17.95;;;12.05;;
51010;SDS011;37038;50.182;8.624;2022-12-07T08:51:11;15.98;;;12.45;;
51010;SDS011;37038;50.182;8.624;2022-12-07T08:54:40;17.90;;;11.57;;
51010;SDS011;37038;50.182;8.624;2022-12-07T08:57:45;15.75;;;10.93;;
51010;SDS011;37038;50.182;8.624;2022-12-07T09:00:40;12.23;;;9.38;;
51010;SDS011;37038;50.182;8.624;2022-12-07T09:12:29;16.75;;;12.48;;
51010;SDS011;37038;50.182;8.624;2022-12-07T09:15:36;14.93;;;11.57;;
51010;SDS011;37038;50.182;8.624;2022-12-07T09:19:59;15.20;;;11.20;;
51010;SDS011;37038;50.182;8.624;2022-12-07T09:22:54;11.85;;;9.60;;
51010;SDS011;37038;50.182;8.624;2022-12-07T09:25:51;11.95;;;10.10;;
51010;SDS011;37038;50.182;8.624;2022-12-07T09:32:09;17.92;;;11.40;;
51010;SDS011;37038;50.182;8.624;2022-12-07T09:35:10;18.38;;;11.80;;
51010;SDS011;37038;50.182;8.624;2022-12-07T09:38:18;16.38;;;11.10;;
51010;SDS011;37038;50.182;8.624;2022-12-07T09:42:30;16.08;;;10.88;;
51010;SDS011;37038;50.182;8.624;2022-12-07T09:52:40;9.00;;;7.18;;
51010;SDS011;37038;50.182;8.624;2022-12-07T09:55:57;5.55;;;4.22;;
51010;SDS011;37038;50.182;8.624;2022-12-07T09:58:46;10.75;;;6.30;;
51010;SDS011;37038;50.182;8.624;2022-12-07T10:01:46;13.35;;;6.95;;
51010;SDS011;37038;50.182;8.624;2022-12-07T10:04:42;7.07;;;5.70;;
51010;SDS011;37038;50.182;8.624;2022-12-07T10:08:04;6.55;;;4.00;;
51010;SDS011;37038;50.182;8.624;2022-12-07T10:11:29;8.05;;;4.90;;
51010;SDS011;37038;50.182;8.624;2022-12-07T10:14:30;7.60;;;4.57;;
51010;SDS011;37038;50.182;8.624;2022-12-07T10:17:51;10.38;;;5.00;;
51010;SDS011;37038;50.182;8.624;2022-12-07T10:20:44;8.52;;;5.53;;
51010;SDS011;37038;50.182;8.624;2022-12-07T10:23:35;8.82;;;6.22;;
51010;SDS011;37038;50.182;8.624;2022-12-07T10:26:53;8.50;;;6.05;;
51010;SDS011;37038;50.182;8.624;2022-12-07T10:29:51;9.18;;;6.63;;
51010;SDS011;37038;50.182;8.624;2022-12-07T10:36:45;6.38;;;5.75;;
51010;SDS011;37038;50.182;8.624;2022-12-07T10:39:57;5.03;;;4.32;;
51010;SDS011;37038;50.182;8.624;2022-12-07T10:43:09;7.57;;;4.28;;
51010;SDS011;37038;50.182;8.624;2022-12-07T11:07:50;9.55;;;4.20;;
51010;SDS011;37038;50.182;8.624;2022-12-07T11:12:34;5.97;;;3.70;;
51010;SDS011;37038;50.182;8.624;2022-12-07T11:20:18;6.28;;;4.50;;
51010;SDS011;37038;50.182;8.624;2022-12-07T11:35:54;5.90;;;5.03;;
51010;SDS011;37038;50.182;8.624;2022-12-07T11:39:59;10.68;;;5.35;;
51010;SDS011;37038;50.182;8.624;2022-12-07T11:47:58;4.72;;;4.18;;
51010;SDS011;37038;50.182;8.624;2022-12-07T11:58:34;7.22;;;3.63;;
51010;SDS011;37038;50.182;8.624;2022-12-07T12:05:51;8.15;;;3.72;;
51010;SDS011;37038;50.182;8.624;2022-12-07T12:09:18;4.95;;;3.20;;
51010;SDS011;37038;50.182;8.624;2022-12-07T12:24:00;8.25;;;3.10;;
51010;SDS011;37038;50.182;8.624;2022-12-07T12:31:03;4.70;;;3.05;;
51010;SDS011;37038;50.182;8.624;2022-12-07T12:34:38;4.57;;;3.30;;
51010;SDS011;37038;50.182;8.624;2022-12-07T12:42:17;4.32;;;3.08;;
51010;SDS011;37038;50.182;8.624;2022-12-07T12:46:35;6.85;;;3.45;;
51010;SDS011;37038;50.182;8.624;2022-12-07T12:55:12;3.58;;;2.67;;
51010;SDS011;37038;50.182;8.624;2022-12-07T12:58:46;4.13;;;2.72;;
51010;SDS011;37038;50.182;8.624;2022-12-07T13:16:38;5.28;;;2.50;;
51010;SDS011;37038;50.182;8.624;2022-12-07T13:22:48;5.38;;;2.45;;
51010;SDS011;37038;50.182;8.624;2022-12-07T13:42:22;4.28;;;2.75;;
51010;SDS011;37038;50.182;8.624;2022-12-07T14:37:41;10.65;;;3.53;;
51010;SDS011;37038;50.182;8.624;2022-12-07T14:58:49;6.30;;;3.05;;
51010;SDS011;37038;50.182;8.624;2022-12-07T15:06:27;7.88;;;4.15;;
51010;SDS011;37038;50.182;8.624;2022-12-07T15:10:08;10.52;;;6.68;;
51010;SDS011;37038;50.182;8.624;2022-12-07T15:19:18;17.67;;;6.55;;
51010;SDS011;37038;50.182;8.624;2022-12-07T15:22:30;10.85;;;4.90;;
51010;SDS011;37038;50.182;8.624;2022-12-07T15:25:28;8.48;;;5.65;;
51010;SDS011;37038;50.182;8.624;2022-12-07T15:28:17;10.38;;;4.53;;
51010;SDS011;37038;50.182;8.624;2022-12-07T15:34:58;5.28;;;3.33;;
51010;SDS011;37038;50.182;8.624;2022-12-07T15:39:01;6.50;;;3.90;;
51010;SDS011;37038;50.182;8.624;2022-12-07T15:42:22;15.07;;;4.50;;
51010;SDS011;37038;50.182;8.624;2022-12-07T15:45:46;7.28;;;4.43;;
51010;SDS011;37038;50.182;8.624;2022-12-07T15:49:18;7.25;;;4.72;;
51010;SDS011;37038;50.182;8.624;2022-12-07T15:52:51;6.55;;;4.13;;
51010;SDS011;37038;50.182;8.624;2022-12-07T15:56:14;7.57;;;4.72;;
51010;SDS011;37038;50.182;8.624;2022-12-07T16:56:53;10.70;;;6.17;;
51010;SDS011;37038;50.182;8.624;2022-12-07T17:00:18;6.50;;;4.60;;
51010;SDS011;37038;50.182;8.624;2022-12-07T17:04:10;7.95;;;5.10;;
51010;SDS011;37038;50.182;8.624;2022-12-07T17:08:00;7.55;;;5.05;;
51010;SDS011;37038;50.182;8.624;2022-12-07T17:18:58;10.80;;;5.22;;
51010;SDS011;37038;50.182;8.624;2022-12-07T17:22:02;8.48;;;5.18;;
51010;SDS011;37038;50.182;8.624;2022-12-07T17:25:06;5.03;;;4.30;;
51010;SDS011;37038;50.182;8.624;2022-12-07T17:28:25;8.05;;;4.63;;
51010;SDS011;37038;50.182;8.624;2022-12-07T17:35:31;6.70;;;4.13;;
51010;SDS011;37038;50.182;8.624;2022-12-07T17:47:26;7.03;;;3.45;;
51010;SDS011;37038;50.182;8.624;2022-12-07T17:51:14;6.63;;;3.80;;
51010;SDS011;37038;50.182;8.624;2022-12-07T17:54:37;4.65;;;4.03;;
51010;SDS011;37038;50.182;8.624;2022-12-07T18:13:08;9.23;;;4.05;;
51010;SDS011;37038;50.182;8.624;2022-12-07T18:20:52;8.27;;;4.28;;
51010;SDS011;37038;50.182;8.624;2022-12-07T18:28:48;10.43;;;5.03;;
51010;SDS011;37038;50.182;8.624;2022-12-07T18:36:48;8.73;;;4.65;;
51010;SDS011;37038;50.182;8.624;2022-12-07T18:39:57;9.30;;;5.00;;
51010;SDS011;37038;50.182;8.624;2022-12-07T18:43:02;8.05;;;5.25;;
51010;SDS011;37038;50.182;8.624;2022-12-07T18:46:15;7.13;;;5.15;;
51010;SDS011;37038;50.182;8.624;2022-12-07T18:49:14;11.02;;;6.22;;
51010;SDS011;37038;50.182;8.624;2022-12-07T18:52:21;9.50;;;5.38;;
51010;SDS011;37038;50.182;8.624;2022-12-07T18:55:20;8.55;;;4.80;;
51010;SDS011;37038;50.182;8.624;2022-12-07T18:58:13;11.85;;;4.95;;
51010;SDS011;37038;50.182;8.624;2022-12-07T19:01:03;7.40;;;4.32;;
51010;SDS011;37038;50.182;8.624;2022-12-07T19:04:36;5.70;;;4.38;;
51010;SDS011;37038;50.182;8.624;2022-12-07T19:07:51;8.95;;;5.85;;
51010;SDS011;37038;50.182;8.624;2022-12-07T19:15:00;10.55;;;6.88;;
51010;SDS011;37038;50.182;8.624;2022-12-07T19:18:08;8.40;;;6.53;;
51010;SDS011;37038;50.182;8.624;2022-12-07T19:21:47;9.93;;;6.20;;
51010;SDS011;37038;50.182;8.624;2022-12-07T19:24:58;8.98;;;5.45;;
51010;SDS011;37038;50.182;8.624;2022-12-07T19:27:52;9.98;;;4.70;;
51010;SDS011;37038;50.182;8.624;2022-12-07T19:30:52;8.35;;;5.10;;
51010;SDS011;37038;50.182;8.624;2022-12-07T19:33:44;6.97;;;4.30;;
51010;SDS011;37038;50.182;8.624;2022-12-07T19:36:40;10.02;;;4.95;;
51010;SDS011;37038;50.182;8.624;2022-12-07T19:39:40;10.85;;;5.35;;
51010;SDS011;37038;50.182;8.624;2022-12-07T19:42:36;8.48;;;5.38;;
51010;SDS011;37038;50.182;8.624;2022-12-07T19:45:25;10.75;;;6.63;;
51010;SDS011;37038;50.182;8.624;2022-12-07T19:48:16;12.57;;;6.88;;
51010;SDS011;37038;50.182;8.624;2022-12-07T19:51:04;9.43;;;4.88;;
51010;SDS011;37038;50.182;8.624;2022-12-07T19:54:07;10.52;;;5.10;;
51010;SDS011;37038;50.182;8.624;2022-12-07T19:57:18;14.02;;;5.47;;
51010;SDS011;37038;50.182;8.624;2022-12-07T20:00:21;9.23;;;6.90;;
51010;SDS011;37038;50.182;8.624;2022-12-07T20:03:11;10.13;;;6.07;;
51010;SDS011;37038;50.182;8.624;2022-12-07T20:06:06;11.05;;;6.38;;
51010;SDS011;37038;50.182;8.624;2022-12-07T20:09:12;10.20;;;7.00;;
51010;SDS011;37038;50.182;8.624;2022-12-07T20:12:05;9.65;;;6.45;;
51010;SDS011;37038;50.182;8.624;2022-12-07T20:15:23;11.00;;;7.05;;
51010;SDS011;37038;50.182;8.624;2022-12-07T20:18:17;14.43;;;6.68;;
51010;SDS011;37038;50.182;8.624;2022-12-07T20:21:14;12.88;;;7.15;;
51010;SDS011;37038;50.182;8.624;2022-12-07T20:24:06;12.68;;;8.20;;
51010;SDS011;37038;50.182;8.624;2022-12-07T20:27:04;16.73;;;9.35;;
51010;SDS011;37038;50.182;8.624;2022-12-07T20:30:07;12.55;;;7.80;;
51010;SDS011;37038;50.182;8.624;2022-12-07T20:33:20;17.13;;;8.23;;
51010;SDS011;37038;50.182;8.624;2022-12-07T20:36:33;12.00;;;6.82;;
51010;SDS011;37038;50.182;8.624;2022-12-07T20:39:24;14.82;;;8.55;;
51010;SDS011;37038;50.182;8.624;2022-12-07T20:42:17;11.43;;;7.75;;
51010;SDS011;37038;50.182;8.624;2022-12-07T20:45:24;15.27;;;8.55;;
51010;SDS011;37038;50.182;8.624;2022-12-07T20:48:12;13.98;;;8.63;;
51010;SDS011;37038;50.182;8.624;2022-12-07T20:51:05;15.23;;;8.57;;
51010;SDS011;37038;50.182;8.624;2022-12-07T20:54:09;14.93;;;9.68;;
51010;SDS011;37038;50.182;8.624;2022-12-07T20:56:59;16.90;;;10.50;;
51010;SDS011;37038;50.182;8.624;2022-12-07T20:59:47;16.60;;;9.30;;
51010;SDS011;37038;50.182;8.624;2022-12-07T21:02:39;15.43;;;10.13;;
51010;SDS011;37038;50.182;8.624;2022-12-07T21:05:27;20.60;;;11.05;;
51010;SDS011;37038;50.182;8.624;2022-12-07T21:08:17;20.50;;;12.15;;
51010;SDS011;37038;50.182;8.624;2022-12-07T21:11:06;19.65;;;12.25;;
51010;SDS011;37038;50.182;8.624;2022-12-07T21:13:55;18.55;;;11.65;;
51010;SDS011;37038;50.182;8.624;2022-12-07T21:16:44;15.90;;;11.30;;
51010;SDS011;37038;50.182;8.624;2022-12-07T21:19:33;21.38;;;12.68;;
51010;SDS011;37038;50.182;8.624;2022-12-07T21:22:22;16.75;;;11.82;;
51010;SDS011;37038;50.182;8.624;2022-12-07T21:25:19;20.13;;;12.80;;
51010;SDS011;37038;50.182;8.624;2022-12-07T21:28:12;16.38;;;11.57;;
51010;SDS011;37038;50.182;8.624;2022-12-07T21:31:02;21.40;;;13.85;;
51010;SDS011;37038;50.182;8.624;2022-12-07T21:34:02;21.52;;;13.65;;
51010;SDS011;37038;50.182;8.624;2022-12-07T21:37:04;21.02;;;13.60;;
51010;SDS011;37038;50.182;8.624;2022-12-07T21:39:54;17.35;;;13.00;;
51010;SDS011;37038;50.182;8.624;2022-12-07T21:42:45;26.70;;;13.82;;
51010;SDS011;37038;50.182;8.624;2022-12-07T21:45:50;20.35;;;13.10;;
51010;SDS011;37038;50.182;8.624;2022-12-07T21:48:53;19.08;;;13.32;;
51010;SDS011;37038;50.182;8.624;2022-12-07T21:51:51;20.83;;;13.85;;
51010;SDS011;37038;50.182;8.624;2022-12-07T21:54:53;22.23;;;12.80;;
51010;SDS011;37038;50.182;8.624;2022-12-07T21:57:43;22.42;;;12.38;;
51010;SDS011;37038;50.182;8.624;2022-12-07T22:00:34;22.00;;;12.55;;
51010;SDS011;37038;50.182;8.624;2022-12-07T22:03:31;20.83;;;13.65;;
51010;SDS011;37038;50.182;8.624;2022-12-07T22:06:25;21.25;;;14.68;;
51010;SDS011;37038;50.182;8.624;2022-12-07T22:09:23;28.73;;;13.27;;
51010;SDS011;37038;50.182;8.624;2022-12-07T22:12:21;24.17;;;14.82;;
51010;SDS011;37038;50.182;8.624;2022-12-07T22:15:09;23.23;;;13.10;;
51010;SDS011;37038;50.182;8.624;2022-12-07T22:18:01;23.48;;;14.30;;
51010;SDS011;37038;50.182;8.624;2022-12-07T22:20:50;20.92;;;14.05;;
51010;SDS011;37038;50.182;8.624;2022-12-07T22:23:43;25.20;;;14.02;;
51010;SDS011;37038;50.182;8.624;2022-12-07T22:26:37;21.25;;;12.98;;
51010;SDS011;37038;50.182;8.624;2022-12-07T22:29:28;23.42;;;14.52;;
51010;SDS011;37038;50.182;8.624;2022-12-07T22:32:22;23.80;;;14.63;;
51010;SDS011;37038;50.182;8.624;2022-12-07T22:35:31;23.33;;;14.65;;
51010;SDS011;37038;50.182;8.624;2022-12-07T22:38:20;22.17;;;15.35;;
51010;SDS011;37038;50.182;8.624;2022-12-07T22:41:23;25.90;;;14.55;;
51010;SDS011;37038;50.182;8.624;2022-12-07T22:44:19;24.48;;;15.43;;
51010;SDS011;37038;50.182;8.624;2022-12-07T22:47:07;19.85;;;13.90;;
51010;SDS011;37038;50.182;8.624;2022-12-07T22:49:56;19.75;;;13.27;;
51010;SDS011;37038;50.182;8.624;2022-12-07T22:52:52;23.77;;;14.32;;
51010;SDS011;37038;50.182;8.624;2022-12-07T22:55:42;20.25;;;14.18;;
51010;SDS011;37038;50.182;8.624;2022-12-07T22:58:35;19.80;;;13.55;;
51010;SDS011;37038;50.182;8.624;2022-12-07T23:01:23;19.20;;;13.90;;
51010;SDS011;37038;50.182;8.624;2022-12-07T23:04:11;23.20;;;14.23;;
51010;SDS011;37038;50.182;8.624;2022-12-07T23:07:02;20.27;;;13.82;;
51010;SDS011;37038;50.182;8.624;2022-12-07T23:09:51;22.48;;;14.85;;
51010;SDS011;37038;50.182;8.624;2022-12-07T23:12:39;22.17;;;14.93;;
51010;SDS011;37038;50.182;8.624;2022-12-07T23:15:50;20.60;;;15.02;;
51010;SDS011;37038;50.182;8.624;2022-12-07T23:18:42;23.92;;;14.88;;
51010;SDS011;37038;50.182;8.624;2022-12-07T23:21:31;25.90;;;15.70;;
51010;SDS011;37038;50.182;8.624;2022-12-07T23:24:23;23.00;;;14.98;;
51010;SDS011;37038;50.182;8.624;2022-12-07T23:27:11;24.45;;;15.68;;
51010;SDS011;37038;50.182;8.624;2022-12-07T23:30:00;25.48;;;16.20;;
51010;SDS011;37038;50.182;8.624;2022-12-07T23:32:51;24.05;;;14.82;;
51010;SDS011;37038;50.182;8.624;2022-12-07T23:35:39;22.73;;;15.75;;
51010;SDS011;37038;50.182;8.624;2022-12-07T23:38:28;26.77;;;15.02;;
51010;SDS011;37038;50.182;8.624;2022-12-07T23:41:24;23.45;;;16.05;;
51010;SDS011;37038;50.182;8.624;2022-12-07T23:44:16;25.17;;;15.32;;
51010;SDS011;37038;50.182;8.624;2022-12-07T23:47:08;26.23;;;15.98;;
51010;SDS011;37038;50.182;8.624;2022-12-07T23:50:06;22.58;;;14.75;;
51010;SDS011;37038;50.182;8.624;2022-12-07T23:53:00;27.05;;;16.75;;
51010;SDS011;37038;50.182;8.624;2022-12-07T23:55:49;25.08;;;17.08;;
51010;SDS011;37038;50.182;8.624;2022-12-07T23:58:38;25.65;;;16.92;;
